Terminal Aerodrome Forecast
Issued by NWS Cleveland, OH

Home | Current Version | Previous Version | Text Only | Print | Product List | Glossary Off
Versions: 1 2 3 4 5 6 7 8 9 10 11 12 13 14 15 16 17 18 19 20 21

679
FTUS41 KCLE 230540
TAFERI
TAF
KERI 230540Z 2306/2406 VRB03KT P6SM SCT100 OVC250
     FM231500 29005KT P6SM BKN100 OVC250
     FM231900 01010KT P6SM SCT050 OVC100
     FM232300 05010KT P6SM SCT025 OVC050
     FM240100 05010KT P6SM BKN025 OVC050=

USA.gov is the U.S. government's official web portal to all federal, state and local government web resources and services.